Time;durP1;ratioP1;P1;durP2;ratioP2;P2;SDS_P1;SDS_P2;PMS_P1;PMS_P2;Temp;Humidity;BMP_temperature;BMP_pressure;BME280_temperature;BME280_humidity;BME280_pressure;Samples;Min_cycle;Max_cycle;Signal;HPM_P1;HPM_P2
2021/11/17 02:28:00;;;;;;;1.15;0.90;;;;;;;;;;5053620;28;20029;-47
2021/11/17 02:30:43;;;;;;;1.02;0.85;;;;;;;;;;5053117;28;20025;-47
2021/11/17 02:33:09;;;;;;;;;;;;;;;;;;5053476;28;20025;-46
2021/11/17 02:35:48;;;;;;;1.70;0.90;;;;;;;;;;5053559;28;20011;-46
2021/11/17 02:38:23;;;;;;;2.83;1.52;;;;;;;;;;5051516;28;20025;-47
2021/11/17 02:40:58;;;;;;;3.25;1.15;;;;;;;;;;5053386;28;20035;-49
2021/11/17 02:43:43;;;;;;;2.42;1.08;;;;;;;;;;5052498;28;20104;-50
2021/11/17 02:46:28;;;;;;;2.10;1.05;;;;;;;;;;5052881;28;20028;-51
2021/11/17 02:49:15;;;;;;;1.30;0.80;;;;;;;;;;5050092;28;20033;-49
2021/11/17 02:52:01;;;;;;;1.10;0.85;;;;;;;;;;5053113;28;20386;-47
2021/11/17 02:54:46;;;;;;;1.17;0.90;;;;;;;;;;5052484;28;20182;-51
2021/11/17 02:57:15;;;;;;;1.48;1.10;;;;;;;;;;5052555;28;20082;-50
2021/11/17 02:59:47;;;;;;;1.60;0.90;;;;;;;;;;5053022;28;20033;-45
2021/11/17 03:02:13;;;;;;;1.48;1.00;;;;;;;;;;5052670;28;20083;-45
2021/11/17 03:04:43;;;;;;;2.60;1.00;;;;;;;;;;5052775;28;20076;-46
2021/11/17 03:07:15;;;;;;;1.58;1.17;;;;;;;;;;5052636;28;20090;-50
2021/11/17 03:10:05;;;;;;;0.95;0.82;;;;;;;;;;5052693;28;20032;-45
2021/11/17 03:12:57;;;;;;;2.10;1.05;;;;;;;;;;5048955;28;20132;-47
2021/11/17 03:15:34;;;;;;;1.67;0.98;;;;;;;;;;5043478;28;20095;-46
2021/11/17 03:18:03;;;;;;;1.50;1.00;;;;;;;;;;5063290;28;20103;-45
2021/11/17 03:20:35;;;;;;;1.27;0.90;;;;;;;;;;5071428;28;20032;-46
2021/11/17 03:23:01;;;;;;;;;;;;;;;;;;5058939;28;20025;-46
2021/11/17 03:25:27;;;;;;;1.73;1.30;;;;;;;;;;5051803;28;19926;-46
2021/11/17 03:28:12;;;;;;;1.35;1.05;;;;;;;;;;5052904;28;20040;-45
2021/11/17 03:30:44;;;;;;;1.45;1.00;;;;;;;;;;5052926;28;20032;-46
2021/11/17 03:33:10;;;;;;;;;;;;;;;;;;5052430;28;20021;-50
2021/11/17 03:35:42;;;;;;;0.77;0.70;;;;;;;;;;5052524;28;19999;-46
2021/11/17 03:38:14;;;;;;;1.25;0.90;;;;;;;;;;5052372;28;20036;-50
2021/11/17 03:40:40;;;;;;;;;;;;;;;;;;5052779;28;20036;-46
2021/11/17 03:43:12;;;;;;;1.38;0.98;;;;;;;;;;5052676;28;19966;-49
2021/11/17 03:45:38;;;;;;;1.27;1.00;;;;;;;;;;5052761;28;20033;-46
2021/11/17 03:48:13;;;;;;;2.60;1.10;;;;;;;;;;5052707;28;20355;-47
2021/11/17 03:50:42;;;;;;;2.85;1.33;;;;;;;;;;5052246;28;20086;-46
2021/11/17 03:53:27;;;;;;;2.05;0.82;;;;;;;;;;5051804;28;20025;-51
2021/11/17 03:55:59;;;;;;;2.08;0.85;;;;;;;;;;5052621;28;20082;-48
2021/11/17 03:58:25;;;;;;;;;;;;;;;;;;5052106;28;20029;-47
2021/11/17 04:00:58;;;;;;;1.15;0.90;;;;;;;;;;5051842;28;20263;-50
2021/11/17 04:03:37;;;;;;;1.17;0.82;;;;;;;;;;5051514;28;20028;-48
2021/11/17 04:06:21;;;;;;;2.08;1.20;;;;;;;;;;5051963;28;20386;-45
2021/11/17 04:08:50;;;;;;;1.92;1.20;;;;;;;;;;5051171;28;20088;-45
2021/11/17 04:11:40;;;;;;;1.40;0.90;;;;;;;;;;5051342;28;20041;-46
2021/11/17 04:14:18;;;;;;;1.38;1.13;;;;;;;;;;5045334;28;20029;-46
2021/11/17 04:17:06;;;;;;;1.30;0.93;;;;;;;;;;5051947;28;20474;-46
2021/11/17 04:19:51;;;;;;;1.13;0.80;;;;;;;;;;5050813;28;20041;-46
2021/11/17 04:22:17;;;;;;;1.02;0.93;;;;;;;;;;5051381;28;20037;-48
2021/11/17 04:25:04;;;;;;;1.00;0.90;;;;;;;;;;5051832;28;20029;-47
2021/11/17 04:27:36;;;;;;;1.65;1.00;;;;;;;;;;5051105;28;20033;-46
2021/11/17 04:30:21;;;;;;;1.58;1.10;;;;;;;;;;5051632;28;20466;-46
2021/11/17 04:32:50;;;;;;;1.27;1.08;;;;;;;;;;5051982;28;20033;-47
2021/11/17 04:35:35;;;;;;;1.35;0.90;;;;;;;;;;5050736;28;20045;-50
2021/11/17 04:38:04;;;;;;;1.23;0.95;;;;;;;;;;5051852;28;20041;-50
2021/11/17 04:40:30;;;;;;;1.48;1.25;;;;;;;;;;5050495;28;20470;-45
2021/11/17 04:42:56;;;;;;;1.08;0.80;;;;;;;;;;5051883;28;20036;-46
2021/11/17 04:45:23;;;;;;;1.70;1.42;;;;;;;;;;5050754;28;20025;-51
2021/11/17 04:48:11;;;;;;;1.10;0.90;;;;;;;;;;5051927;28;20022;-47
2021/11/17 04:50:45;;;;;;;1.20;0.93;;;;;;;;;;5051574;28;20090;-46
2021/11/17 04:53:28;;;;;;;1.30;0.98;;;;;;;;;;5050340;28;20404;-51
2021/11/17 04:55:57;;;;;;;1.27;1.10;;;;;;;;;;5051213;28;20436;-47
2021/11/17 04:58:30;;;;;;;1.10;1.00;;;;;;;;;;5050913;28;20445;-45
2021/11/17 05:00:56;;;;;;;1.15;0.85;;;;;;;;;;5051627;28;20042;-45
2021/11/17 05:03:41;;;;;;;1.60;0.98;;;;;;;;;;5053405;28;20382;-47
2021/11/17 05:06:26;;;;;;;1.05;0.60;;;;;;;;;;5055760;28;20043;-45
2021/11/17 05:09:02;;;;;;;1.42;1.00;;;;;;;;;;5055725;28;20036;-46
2021/11/17 05:11:37;;;;;;;1.40;1.02;;;;;;;;;;5054827;28;20033;-45
2021/11/17 05:14:15;;;;;;;1.65;0.85;;;;;;;;;;5055644;28;20052;-45
2021/11/17 05:16:51;;;;;;;2.78;1.08;;;;;;;;;;5055430;28;20028;-45
2021/11/17 05:19:23;;;;;;;1.38;1.05;;;;;;;;;;5055014;28;20028;-46
2021/11/17 05:21:58;;;;;;;1.48;0.95;;;;;;;;;;5055080;28;20025;-46
2021/11/17 05:24:30;;;;;;;1.00;0.85;;;;;;;;;;5054406;28;20509;-45
2021/11/17 05:27:02;;;;;;;1.05;0.70;;;;;;;;;;5055082;28;20470;-46
2021/11/17 05:30:01;;;;;;;1.33;0.90;;;;;;;;;;5054677;28;20025;-45
2021/11/17 05:32:35;;;;;;;3.30;0.80;;;;;;;;;;5031037;28;20045;-46
2021/11/17 05:35:07;;;;;;;1.17;0.90;;;;;;;;;;5054809;28;20056;-47
2021/11/17 05:37:43;;;;;;;1.13;0.70;;;;;;;;;;5054345;28;20116;-46
2021/11/17 05:40:22;;;;;;;0.90;0.68;;;;;;;;;;5055316;28;20481;-46
2021/11/17 05:42:48;;;;;;;0.93;0.63;;;;;;;;;;5055163;28;20032;-46
2021/11/17 05:45:33;;;;;;;1.10;0.90;;;;;;;;;;5054531;28;20431;-51
2021/11/17 05:48:02;;;;;;;1.65;1.15;;;;;;;;;;5054932;28;20029;-47
2021/11/17 05:50:39;;;;;;;0.73;0.68;;;;;;;;;;5054167;28;20035;-47
2021/11/17 05:53:11;;;;;;;1.95;1.00;;;;;;;;;;5054965;28;20032;-47
2021/11/17 05:55:40;;;;;;;1.80;1.08;;;;;;;;;;5054354;28;20069;-47
2021/11/17 05:58:25;;;;;;;1.48;0.90;;;;;;;;;;5054490;28;20025;-49
2021/11/17 06:00:58;;;;;;;1.00;0.88;;;;;;;;;;5054143;28;20033;-46
2021/11/17 06:03:26;;;;;;;0.90;0.70;;;;;;;;;;5053837;28;20029;-50
2021/11/17 06:05:52;;;;;;;1.30;0.82;;;;;;;;;;5053268;28;20036;-46
2021/11/17 06:08:18;;;;;;;1.08;0.80;;;;;;;;;;5053748;28;20025;-48
2021/11/17 06:10:48;;;;;;;1.08;0.80;;;;;;;;;;5054755;28;20025;-48
2021/11/17 06:13:17;;;;;;;1.13;0.80;;;;;;;;;;5053886;28;20023;-52
2021/11/17 06:15:44;;;;;;;1.20;1.00;;;;;;;;;;5053454;28;20029;-50
2021/11/17 06:18:12;;;;;;;1.35;1.00;;;;;;;;;;5053626;28;20028;-50
2021/11/17 06:20:39;;;;;;;1.65;0.88;;;;;;;;;;5053432;28;20047;-48
2021/11/17 06:23:09;;;;;;;1.35;0.90;;;;;;;;;;5053890;28;20032;-49
2021/11/17 06:25:37;;;;;;;0.93;0.80;;;;;;;;;;5053465;28;20083;-51
2021/11/17 06:28:04;;;;;;;1.13;0.90;;;;;;;;;;5053486;28;20017;-47
2021/11/17 06:30:37;;;;;;;1.23;0.80;;;;;;;;;;5052741;28;20056;-49
2021/11/17 06:33:04;;;;;;;1.13;0.73;;;;;;;;;;5053448;28;20458;-47
2021/11/17 06:35:30;;;;;;;1.33;0.85;;;;;;;;;;5052898;28;20049;-45
2021/11/17 06:37:56;;;;;;;2.22;0.80;;;;;;;;;;5053714;28;20100;-49
2021/11/17 06:40:23;;;;;;;1.17;1.00;;;;;;;;;;5053043;28;20055;-50
2021/11/17 06:42:59;;;;;;;2.47;0.73;;;;;;;;;;5053684;28;20025;-46
2021/11/17 06:45:31;;;;;;;2.80;1.05;;;;;;;;;;5053129;28;20104;-48
2021/11/17 06:47:58;;;;;;;1.35;0.90;;;;;;;;;;5053721;28;20025;-50
2021/11/17 06:50:24;;;;;;;3.00;1.00;;;;;;;;;;5053192;28;20057;-47
2021/11/17 06:52:50;;;;;;;4.78;1.75;;;;;;;;;;5053321;28;20041;-45
2021/11/17 06:55:18;;;;;;;5.13;1.38;;;;;;;;;;5053406;28;20017;-55
2021/11/17 06:57:44;;;;;;;7.65;1.98;;;;;;;;;;5053537;28;20029;-46
2021/11/17 07:00:12;;;;;;;5.97;1.38;;;;;;;;;;5053397;28;20060;-46
2021/11/17 07:02:38;;;;;;;4.63;1.35;;;;;;;;;;5052475;28;20025;-48
2021/11/17 07:05:04;;;;;;;8.27;2.15;;;;;;;;;;5053423;28;20051;-47
2021/11/17 07:07:31;;;;;;;6.53;1.60;;;;;;;;;;5049621;28;20029;-48
2021/11/17 07:09:57;;;;;;;2.30;1.30;;;;;;;;;;5052985;28;20466;-50
2021/11/17 07:12:23;;;;;;;8.98;1.83;;;;;;;;;;5052255;28;20021;-51
2021/11/17 07:14:49;;;;;;;10.07;2.22;;;;;;;;;;5052689;28;20484;-47
2021/11/17 07:17:21;;;;;;;6.50;1.30;;;;;;;;;;5084755;28;20147;-52
2021/11/17 07:19:47;;;;;;;6.95;1.30;;;;;;;;;;5052266;28;20039;-46
2021/11/17 07:22:14;;;;;;;4.40;1.55;;;;;;;;;;5052181;28;20101;-47
2021/11/17 07:24:40;;;;;;;3.60;1.35;;;;;;;;;;5086720;28;20120;-47
2021/11/17 07:27:07;;;;;;;9.50;2.00;;;;;;;;;;5056178;28;20687;-47
2021/11/17 07:29:34;;;;;;;6.20;2.30;;;;;;;;;;5057842;28;20417;-48
2021/11/17 07:32:00;;;;;;;5.97;1.40;;;;;;;;;;5049977;28;20017;-48
2021/11/17 07:34:27;;;;;;;4.10;1.33;;;;;;;;;;5050179;28;20056;-49
2021/11/17 07:36:53;;;;;;;2.78;1.20;;;;;;;;;;5052252;28;20482;-50
2021/11/17 07:39:20;;;;;;;8.35;1.50;;;;;;;;;;5051395;28;20070;-54
2021/11/17 07:41:50;;;;;;;4.35;1.10;;;;;;;;;;5051613;28;20036;-47
2021/11/17 07:44:23;;;;;;;4.43;1.00;;;;;;;;;;5051470;28;20356;-54
2021/11/17 07:46:51;;;;;;;2.83;1.10;;;;;;;;;;5052151;28;20024;-49
2021/11/17 07:49:23;;;;;;;5.10;1.50;;;;;;;;;;5052073;28;20021;-55
2021/11/17 07:51:50;;;;;;;2.13;1.52;;;;;;;;;;5052527;28;20063;-49
2021/11/17 07:54:23;;;;;;;5.28;1.45;;;;;;;;;;5051948;28;20032;-54
2021/11/17 07:56:50;;;;;;;3.03;1.23;;;;;;;;;;5052357;28;20029;-48
2021/11/17 07:59:18;;;;;;;4.45;1.38;;;;;;;;;;5051889;28;20025;-50
2021/11/17 08:01:45;;;;;;;3.03;1.10;;;;;;;;;;5051368;28;20052;-47
2021/11/17 08:04:15;;;;;;;3.13;1.08;;;;;;;;;;5051484;28;20372;-48
2021/11/17 08:06:42;;;;;;;5.00;1.30;;;;;;;;;;5051626;28;20041;-48
2021/11/17 08:09:08;;;;;;;1.65;1.17;;;;;;;;;;5051158;28;20442;-46
2021/11/17 08:11:34;;;;;;;1.77;1.00;;;;;;;;;;5051245;28;20078;-47
2021/11/17 08:14:00;;;;;;;3.42;1.15;;;;;;;;;;5050990;28;20021;-47
2021/11/17 08:16:27;;;;;;;2.70;1.00;;;;;;;;;;5051842;28;20044;-49
2021/11/17 08:18:53;;;;;;;2.78;1.17;;;;;;;;;;5052471;28;20478;-47
2021/11/17 08:21:21;;;;;;;3.05;1.10;;;;;;;;;;5051212;28;20375;-54
2021/11/17 08:23:47;;;;;;;2.20;1.00;;;;;;;;;;5032237;28;20029;-48
2021/11/17 08:26:14;;;;;;;4.00;1.45;;;;;;;;;;5050195;28;20025;-47
2021/11/17 08:28:41;;;;;;;3.13;1.13;;;;;;;;;;5051107;28;20489;-46
2021/11/17 08:31:08;;;;;;;2.10;1.30;;;;;;;;;;5051572;28;20032;-47
2021/11/17 08:33:34;;;;;;;3.20;1.20;;;;;;;;;;5050876;28;20092;-48
2021/11/17 08:36:02;;;;;;;3.20;1.58;;;;;;;;;;5051789;28;20045;-50
2021/11/17 08:38:29;;;;;;;2.50;1.10;;;;;;;;;;5049536;28;20351;-50
2021/11/17 08:40:58;;;;;;;2.78;1.30;;;;;;;;;;5051361;28;20128;-50
2021/11/17 08:43:25;;;;;;;1.38;1.02;;;;;;;;;;5051038;28;20025;-48
2021/11/17 08:45:51;;;;;;;2.45;0.95;;;;;;;;;;5051384;28;20025;-47
2021/11/17 08:48:18;;;;;;;2.55;1.27;;;;;;;;;;5051280;28;20497;-46
2021/11/17 08:50:45;;;;;;;0.93;0.77;;;;;;;;;;5051312;28;20078;-48
2021/11/17 08:53:12;;;;;;;2.67;1.55;;;;;;;;;;5051580;28;20026;-47
2021/11/17 08:55:42;;;;;;;1.15;0.73;;;;;;;;;;5050941;28;20029;-49
2021/11/17 08:58:08;;;;;;;1.90;0.93;;;;;;;;;;5051431;28;20036;-48
2021/11/17 09:00:34;;;;;;;1.58;0.77;;;;;;;;;;5050514;28;20478;-49
2021/11/17 09:03:02;;;;;;;1.50;0.88;;;;;;;;;;5051000;28;20033;-48
2021/11/17 09:05:30;;;;;;;3.47;0.98;;;;;;;;;;5050537;28;20029;-52
2021/11/17 09:07:59;;;;;;;1.73;1.05;;;;;;;;;;5051410;28;20059;-48
2021/11/17 09:10:26;;;;;;;1.02;0.82;;;;;;;;;;5050820;28;20112;-51
2021/11/17 09:12:53;;;;;;;1.25;0.70;;;;;;;;;;5051382;28;20167;-48
2021/11/17 09:15:28;;;;;;;1.15;0.70;;;;;;;;;;5049952;28;20028;-54
2021/11/17 09:17:54;;;;;;;0.82;0.70;;;;;;;;;;5050819;28;20109;-47
2021/11/17 09:20:23;;;;;;;1.73;0.95;;;;;;;;;;5050768;28;20112;-54
2021/11/17 09:22:49;;;;;;;1.48;0.88;;;;;;;;;;5051294;28;20029;-47
2021/11/17 09:25:16;;;;;;;3.08;0.63;;;;;;;;;;5051238;28;20071;-49
2021/11/17 09:27:43;;;;;;;2.65;0.98;;;;;;;;;;5049819;28;20025;-52
2021/11/17 09:30:11;;;;;;;1.58;0.52;;;;;;;;;;5051761;28;20028;-47
2021/11/17 09:32:37;;;;;;;1.27;0.77;;;;;;;;;;5050529;28;20036;-46
2021/11/17 09:35:05;;;;;;;0.93;0.65;;;;;;;;;;5050951;28;20048;-47
2021/11/17 09:37:32;;;;;;;3.67;0.80;;;;;;;;;;5050392;28;20031;-53
2021/11/17 09:39:58;;;;;;;1.92;0.80;;;;;;;;;;5051003;28;20124;-50
2021/11/17 09:42:25;;;;;;;1.10;0.75;;;;;;;;;;5049946;28;20114;-50
2021/11/17 09:44:51;;;;;;;0.70;0.60;;;;;;;;;;5051085;28;20021;-48
2021/11/17 09:47:19;;;;;;;2.05;0.65;;;;;;;;;;5050881;28;20036;-47
2021/11/17 09:50:04;;;;;;;1.02;0.60;;;;;;;;;;5048009;28;20021;-50
2021/11/17 09:52:33;;;;;;;1.20;0.55;;;;;;;;;;5050569;28;20029;-47
2021/11/17 09:55:07;;;;;;;1.40;0.93;;;;;;;;;;5055343;28;20473;-48
2021/11/17 09:57:35;;;;;;;1.83;1.20;;;;;;;;;;5053701;28;20033;-47
2021/11/17 10:00:11;;;;;;;1.30;0.65;;;;;;;;;;5054255;28;20029;-48
2021/11/17 10:02:38;;;;;;;1.40;0.75;;;;;;;;;;5053613;28;20474;-49
2021/11/17 10:05:14;;;;;;;1.52;0.57;;;;;;;;;;5054681;28;20040;-48
2021/11/17 10:13:07;;;;;;;1.63;0.93;;;;;;;;;;5054094;28;20025;-48
2021/11/17 10:15:37;;;;;;;1.13;0.75;;;;;;;;;;5055033;28;20029;-49
2021/11/17 10:18:25;;;;;;;1.73;0.80;;;;;;;;;;5050460;28;20029;-50
2021/11/17 10:20:54;;;;;;;1.02;0.65;;;;;;;;;;5047350;28;20044;-50
2021/11/17 10:23:27;;;;;;;1.15;0.60;;;;;;;;;;5054022;28;20013;-49
2021/11/17 10:26:13;;;;;;;1.20;0.82;;;;;;;;;;5070811;28;20020;-51
2021/11/17 10:28:48;;;;;;;0.73;0.70;;;;;;;;;;5053219;28;20032;-52
2021/11/17 10:31:17;;;;;;;0.93;0.68;;;;;;;;;;5053852;28;20493;-50
2021/11/17 10:33:44;;;;;;;0.82;0.40;;;;;;;;;;5052926;28;20612;-49
2021/11/17 10:36:16;;;;;;;0.90;0.50;;;;;;;;;;5053780;28;20351;-48
2021/11/17 10:38:47;;;;;;;1.02;0.70;;;;;;;;;;5053057;28;20100;-48
2021/11/17 10:41:31;;;;;;;0.70;0.50;;;;;;;;;;5053919;28;20432;-48
2021/11/17 10:44:00;;;;;;;1.30;0.73;;;;;;;;;;5053607;28;20029;-53
2021/11/17 10:46:52;;;;;;;0.77;0.50;;;;;;;;;;5053114;28;20151;-49
2021/11/17 10:49:23;;;;;;;0.47;0.43;;;;;;;;;;5048452;28;20039;-49
2021/11/17 10:51:53;;;;;;;1.13;0.67;;;;;;;;;;5052928;28;20065;-49
2021/11/17 10:54:20;;;;;;;0.70;0.50;;;;;;;;;;5053189;28;20033;-49
2021/11/17 10:56:57;;;;;;;1.42;0.80;;;;;;;;;;5052585;28;20392;-48
2021/11/17 10:59:26;;;;;;;2.45;0.70;;;;;;;;;;5052917;28;20467;-55
2021/11/17 11:01:52;;;;;;;0.80;0.60;;;;;;;;;;5053234;28;20044;-49
2021/11/17 11:04:23;;;;;;;0.82;0.70;;;;;;;;;;5053283;28;20409;-50
2021/11/17 11:06:51;;;;;;;0.95;0.60;;;;;;;;;;5052860;28;20021;-50
2021/11/17 11:09:19;;;;;;;0.80;0.50;;;;;;;;;;5053139;28;20029;-50
2021/11/17 11:11:50;;;;;;;0.85;0.50;;;;;;;;;;5057606;28;20021;-50
2021/11/17 11:14:16;;;;;;;1.23;0.90;;;;;;;;;;5071771;28;20027;-48
2021/11/17 11:16:47;;;;;;;1.02;0.60;;;;;;;;;;5071654;28;20031;-52
2021/11/17 11:19:13;;;;;;;0.63;0.47;;;;;;;;;;5070781;28;20025;-49
2021/11/17 11:21:42;;;;;;;0.35;0.35;;;;;;;;;;5069069;28;20028;-52
2021/11/17 11:24:27;;;;;;;0.98;0.40;;;;;;;;;;5066070;28;20021;-48
2021/11/17 11:26:59;;;;;;;1.60;0.50;;;;;;;;;;5056797;28;20095;-48
2021/11/17 11:29:29;;;;;;;1.05;0.77;;;;;;;;;;5053834;28;20029;-55
2021/11/17 11:31:56;;;;;;;0.68;0.40;;;;;;;;;;5052866;28;20017;-49
2021/11/17 11:34:37;;;;;;;0.75;0.40;;;;;;;;;;5057042;28;20024;-50
2021/11/17 11:37:09;;;;;;;0.60;0.40;;;;;;;;;;5040756;28;20059;-50
2021/11/17 11:39:39;;;;;;;0.60;0.40;;;;;;;;;;5070867;28;20032;-48
2021/11/17 11:42:41;;;;;;;0.85;0.50;;;;;;;;;;5069431;28;20029;-49
2021/11/17 11:45:10;;;;;;;1.85;0.52;;;;;;;;;;5018890;28;20040;-49
2021/11/17 11:47:45;;;;;;;4.60;1.02;;;;;;;;;;5071160;28;20035;-49
2021/11/17 11:50:30;;;;;;;1.45;0.52;;;;;;;;;;5069650;28;20029;-49
2021/11/17 11:53:15;;;;;;;1.00;0.40;;;;;;;;;;5050151;28;20025;-49
2021/11/17 11:55:50;;;;;;;0.40;0.38;;;;;;;;;;5050077;28;20032;-49
2021/11/17 11:58:24;;;;;;;0.63;0.50;;;;;;;;;;5048745;28;20025;-50
2021/11/17 12:01:03;;;;;;;2.10;0.52;;;;;;;;;;5032661;28;20052;-48
2021/11/17 12:03:31;;;;;;;1.00;0.50;;;;;;;;;;5033401;28;20442;-49
2021/11/17 12:06:04;;;;;;;0.50;0.38;;;;;;;;;;5043158;28;20140;-51
2021/11/17 12:08:33;;;;;;;0.75;0.60;;;;;;;;;;5048543;28;20036;-48
2021/11/17 12:11:02;;;;;;;0.93;0.43;;;;;;;;;;5033175;28;20077;-50
2021/11/17 12:13:30;;;;;;;0.55;0.35;;;;;;;;;;5039945;28;20017;-54
2021/11/17 12:15:56;;;;;;;0.77;0.40;;;;;;;;;;5051913;28;20032;-48
2021/11/17 12:18:23;;;;;;;0.40;0.40;;;;;;;;;;5052613;28;20031;-49
2021/11/17 12:21:02;;;;;;;0.93;0.40;;;;;;;;;;5051076;28;20040;-48
2021/11/17 12:23:31;;;;;;;0.65;0.50;;;;;;;;;;5051121;28;20100;-55
2021/11/17 12:25:57;;;;;;;0.75;0.35;;;;;;;;;;5069083;28;20081;-49
2021/11/17 12:28:24;;;;;;;1.35;0.80;;;;;;;;;;5070772;28;20107;-49
2021/11/17 12:30:54;;;;;;;0.77;0.40;;;;;;;;;;5069173;28;20486;-53
2021/11/17 12:33:26;;;;;;;0.70;0.45;;;;;;;;;;5071679;28;20033;-50
2021/11/17 12:36:13;;;;;;;0.85;0.45;;;;;;;;;;5071285;28;20052;-51
2021/11/17 12:38:40;;;;;;;0.93;0.60;;;;;;;;;;5070793;28;20038;-50
2021/11/17 12:41:27;;;;;;;1.02;0.50;;;;;;;;;;5071476;28;20101;-50
2021/11/17 12:43:58;;;;;;;2.83;0.40;;;;;;;;;;5071217;28;20025;-48
2021/11/17 12:46:27;;;;;;;1.08;0.47;;;;;;;;;;5067553;28;20016;-50
2021/11/17 12:48:55;;;;;;;1.35;0.70;;;;;;;;;;5063859;28;20017;-50
2021/11/17 12:51:27;;;;;;;0.50;0.50;;;;;;;;;;5052260;28;20024;-49
2021/11/17 12:53:58;;;;;;;1.00;0.57;;;;;;;;;;5051267;28;20048;-48
2021/11/17 12:56:50;;;;;;;2.63;1.48;;;;;;;;;;5054457;28;20462;-54
2021/11/17 12:59:22;;;;;;;1.00;0.63;;;;;;;;;;5068179;28;20048;-49
2021/11/17 13:01:50;;;;;;;1.23;0.60;;;;;;;;;;5070271;28;20032;-50
2021/11/17 13:04:16;;;;;;;2.15;0.65;;;;;;;;;;5071543;28;20025;-51
2021/11/17 13:06:45;;;;;;;1.02;0.88;;;;;;;;;;5070442;28;20025;-53
2021/11/17 13:09:14;;;;;;;0.82;0.55;;;;;;;;;;5071329;28;20354;-49
2021/11/17 13:11:55;;;;;;;0.80;0.40;;;;;;;;;;5068489;28;20485;-53
2021/11/17 13:14:40;;;;;;;1.13;0.60;;;;;;;;;;5071638;28;20029;-48
2021/11/17 13:17:08;;;;;;;0.90;0.57;;;;;;;;;;5070670;28;20350;-49
2021/11/17 13:19:37;;;;;;;1.42;0.60;;;;;;;;;;5070215;28;20083;-49
2021/11/17 13:22:06;;;;;;;1.60;0.52;;;;;;;;;;5065214;28;20370;-49
2021/11/17 13:24:35;;;;;;;0.43;0.40;;;;;;;;;;5051585;28;20025;-50
2021/11/17 13:27:07;;;;;;;0.90;0.52;;;;;;;;;;5069678;28;20029;-52
2021/11/17 13:29:54;;;;;;;1.73;1.00;;;;;;;;;;5074740;28;20104;-52
2021/11/17 13:32:25;;;;;;;1.77;0.57;;;;;;;;;;5074837;28;20037;-49
2021/11/17 13:34:52;;;;;;;1.52;0.50;;;;;;;;;;5073881;28;20041;-53
2021/11/17 13:37:34;;;;;;;1.20;0.70;;;;;;;;;;5074464;28;20086;-53
2021/11/17 13:40:03;;;;;;;1.08;0.55;;;;;;;;;;5072416;28;20036;-48
2021/11/17 13:42:32;;;;;;;0.82;0.60;;;;;;;;;;5073831;28;20040;-56
2021/11/17 13:45:01;;;;;;;1.70;0.85;;;;;;;;;;5072378;28;20024;-49
2021/11/17 13:47:35;;;;;;;0.60;0.50;;;;;;;;;;5074219;28;20024;-54
2021/11/17 13:50:02;;;;;;;2.25;0.60;;;;;;;;;;5073786;28;20031;-49
2021/11/17 13:52:36;;;;;;;2.28;0.60;;;;;;;;;;5074003;28;20052;-55
2021/11/17 13:55:05;;;;;;;1.13;0.75;;;;;;;;;;5074076;28;20116;-51
2021/11/17 13:57:32;;;;;;;1.55;0.60;;;;;;;;;;5070965;28;20404;-57
2021/11/17 13:59:59;;;;;;;1.67;0.63;;;;;;;;;;5059897;28;20076;-51
2021/11/17 14:02:25;;;;;;;0.77;0.50;;;;;;;;;;5053991;28;20025;-49
2021/11/17 14:04:51;;;;;;;0.90;0.57;;;;;;;;;;5047755;28;20163;-48
2021/11/17 14:07:19;;;;;;;2.20;0.65;;;;;;;;;;5054772;28;20095;-52
2021/11/17 14:09:45;;;;;;;0.50;0.35;;;;;;;;;;5058199;28;20064;-50
2021/11/17 14:12:11;;;;;;;2.17;0.70;;;;;;;;;;5074119;28;20102;-50
2021/11/17 14:14:38;;;;;;;0.65;0.47;;;;;;;;;;5072903;28;20425;-48
2021/11/17 14:17:05;;;;;;;1.23;0.60;;;;;;;;;;5072009;28;20025;-52
2021/11/17 14:19:33;;;;;;;1.40;0.68;;;;;;;;;;5073269;28;20358;-55
2021/11/17 14:21:59;;;;;;;1.75;0.85;;;;;;;;;;5067893;28;20037;-50
2021/11/17 14:24:26;;;;;;;2.15;1.25;;;;;;;;;;5058705;28;20028;-51
2021/11/17 14:26:52;;;;;;;1.92;0.60;;;;;;;;;;5064948;28;20021;-48
2021/11/17 14:29:22;;;;;;;1.88;0.50;;;;;;;;;;5073520;28;20568;-49
2021/11/17 14:31:50;;;;;;;2.30;0.50;;;;;;;;;;5070547;28;20043;-49
2021/11/17 14:34:16;;;;;;;1.90;0.70;;;;;;;;;;5073072;28;20040;-46
2021/11/17 14:36:49;;;;;;;0.80;0.70;;;;;;;;;;5070839;28;20033;-48
2021/11/17 14:39:16;;;;;;;1.30;0.93;;;;;;;;;;5071882;28;20028;-50
2021/11/17 14:41:42;;;;;;;1.25;0.65;;;;;;;;;;5072385;28;20039;-46
2021/11/17 14:44:08;;;;;;;1.00;0.60;;;;;;;;;;5073430;28;20024;-53
2021/11/17 14:46:35;;;;;;;0.95;0.57;;;;;;;;;;5070509;28;20017;-50
2021/11/17 14:49:01;;;;;;;2.35;1.10;;;;;;;;;;5073241;28;20036;-48
2021/11/17 14:51:27;;;;;;;0.98;0.75;;;;;;;;;;5073535;28;20032;-51
2021/11/17 14:53:54;;;;;;;3.88;0.75;;;;;;;;;;5072853;28;20124;-47
2021/11/17 14:56:21;;;;;;;2.10;1.13;;;;;;;;;;5073614;28;20374;-48
2021/11/17 14:58:47;;;;;;;5.93;0.77;;;;;;;;;;5070587;28;20110;-50
2021/11/17 15:01:39;;;;;;;4.35;1.42;;;;;;;;;;5073327;28;20036;-49
2021/11/17 15:04:06;;;;;;;1.33;0.52;;;;;;;;;;5070167;28;20174;-49
2021/11/17 15:06:36;;;;;;;3.38;0.85;;;;;;;;;;5070419;28;20029;-56
2021/11/17 15:09:03;;;;;;;3.13;0.70;;;;;;;;;;5072052;28;20024;-51
2021/11/17 15:11:29;;;;;;;3.60;1.02;;;;;;;;;;5062821;28;20478;-49
2021/11/17 15:13:55;;;;;;;3.15;0.60;;;;;;;;;;5052142;28;20179;-46
2021/11/17 15:16:22;;;;;;;2.47;0.70;;;;;;;;;;5052852;28;20422;-49
2021/11/17 15:18:48;;;;;;;2.72;0.95;;;;;;;;;;5059391;28;20074;-47
2021/11/17 15:21:17;;;;;;;3.03;0.77;;;;;;;;;;5061810;28;20029;-51
2021/11/17 15:23:48;;;;;;;2.00;0.75;;;;;;;;;;5052279;28;20028;-50
2021/11/17 15:26:15;;;;;;;1.10;0.73;;;;;;;;;;5052998;28;20044;-54
2021/11/17 15:28:44;;;;;;;3.30;0.80;;;;;;;;;;5052105;28;20032;-46
2021/11/17 15:31:23;;;;;;;1.98;0.82;;;;;;;;;;5052570;28;20493;-47
2021/11/17 15:33:50;;;;;;;1.58;0.60;;;;;;;;;;5067705;28;20417;-49
2021/11/17 15:36:17;;;;;;;1.15;0.73;;;;;;;;;;5052397;28;20107;-49
2021/11/17 15:38:43;;;;;;;1.60;0.63;;;;;;;;;;5060493;28;20496;-50
2021/11/17 15:41:16;;;;;;;2.33;0.80;;;;;;;;;;5054801;28;20445;-50
2021/11/17 15:43:46;;;;;;;2.03;0.70;;;;;;;;;;5034551;28;20083;-50
2021/11/17 15:46:12;;;;;;;1.98;0.88;;;;;;;;;;5034607;28;20417;-47
2021/11/17 15:48:38;;;;;;;3.22;1.05;;;;;;;;;;5043300;28;20055;-54
2021/11/17 15:51:16;;;;;;;1.20;0.77;;;;;;;;;;5051588;28;20037;-49
2021/11/17 15:53:43;;;;;;;1.35;0.40;;;;;;;;;;5050624;28;20035;-48
2021/11/17 15:56:10;;;;;;;0.80;0.60;;;;;;;;;;5053060;28;20031;-47
2021/11/17 15:58:36;;;;;;;2.00;0.80;;;;;;;;;;5051382;28;20021;-54
2021/11/17 16:01:02;;;;;;;1.73;0.70;;;;;;;;;;5052067;28;20037;-47
2021/11/17 16:03:29;;;;;;;1.63;0.60;;;;;;;;;;5052141;28;20420;-47
2021/11/17 16:05:55;;;;;;;2.00;0.70;;;;;;;;;;5051864;28;20021;-48
2021/11/17 16:08:21;;;;;;;2.40;0.52;;;;;;;;;;5052202;28;20021;-47
2021/11/17 16:10:48;;;;;;;1.83;0.52;;;;;;;;;;5051208;28;20029;-49
2021/11/17 16:13:14;;;;;;;0.63;0.55;;;;;;;;;;5059167;28;20073;-48
2021/11/17 16:15:42;;;;;;;2.20;0.68;;;;;;;;;;5065429;28;20362;-50
2021/11/17 16:18:09;;;;;;;4.68;1.00;;;;;;;;;;5053752;28;20025;-47
2021/11/17 16:20:48;;;;;;;1.40;0.60;;;;;;;;;;5062255;28;20119;-56
2021/11/17 16:25:33;;;;;;;1.52;0.80;;;;;;;;;;5064886;28;20025;-50
2021/11/17 16:26:02;;;;;;;1.85;0.95;;;;;;;;;;5066591;28;20029;-48
2021/11/17 16:28:37;;;;;;;2.22;0.63;;;;;;;;;;5097646;28;20025;-51
2021/11/17 16:31:05;;;;;;;1.85;0.63;;;;;;;;;;5072872;28;20047;-52
2021/11/17 16:33:31;;;;;;;1.17;0.45;;;;;;;;;;5062713;28;20036;-49
2021/11/17 16:35:58;;;;;;;0.95;0.60;;;;;;;;;;5069621;28;20057;-50
2021/11/17 16:38:24;;;;;;;2.35;0.70;;;;;;;;;;5070665;28;20085;-49
2021/11/17 16:40:51;;;;;;;1.52;0.85;;;;;;;;;;5060639;28;20091;-50
2021/11/17 16:43:18;;;;;;;1.25;0.65;;;;;;;;;;5051489;28;20029;-47
2021/11/17 16:45:45;;;;;;;5.05;0.73;;;;;;;;;;5053869;28;20024;-57
2021/11/17 16:48:12;;;;;;;1.02;0.65;;;;;;;;;;5069606;28;20021;-47
2021/11/17 16:50:40;;;;;;;3.10;0.80;;;;;;;;;;5070806;28;20031;-57
2021/11/17 16:53:06;;;;;;;4.13;1.20;;;;;;;;;;5071297;28;20436;-52
2021/11/17 16:55:35;;;;;;;2.75;0.82;;;;;;;;;;5053472;28;20166;-59
2021/11/17 16:58:01;;;;;;;2.05;0.70;;;;;;;;;;5065760;28;20465;-52
2021/11/17 17:00:29;;;;;;;4.10;1.63;;;;;;;;;;5052669;28;20087;-49
2021/11/17 17:02:56;;;;;;;4.05;0.80;;;;;;;;;;5056378;28;20186;-51
2021/11/17 17:05:23;;;;;;;0.95;0.57;;;;;;;;;;5056563;28;20359;-54
2021/11/17 17:07:49;;;;;;;1.65;0.70;;;;;;;;;;5067778;28;20396;-51
2021/11/17 17:10:20;;;;;;;3.97;0.82;;;;;;;;;;5073831;28;20473;-50
2021/11/17 17:12:47;;;;;;;9.30;1.10;;;;;;;;;;5074949;28;20028;-51
2021/11/17 17:15:14;;;;;;;7.88;1.38;;;;;;;;;;5076107;28;20032;-53
2021/11/17 17:17:41;;;;;;;5.95;1.17;;;;;;;;;;5075042;28;20043;-56
2021/11/17 17:20:09;;;;;;;7.22;1.45;;;;;;;;;;5074691;28;20442;-51
2021/11/17 17:22:35;;;;;;;5.68;1.17;;;;;;;;;;5065003;28;20082;-50
2021/11/17 17:25:02;;;;;;;4.55;1.30;;;;;;;;;;5070535;28;20028;-53
2021/11/17 17:27:29;;;;;;;3.58;1.00;;;;;;;;;;5075064;28;20020;-51
2021/11/17 17:29:56;;;;;;;3.08;1.00;;;;;;;;;;5053514;28;20033;-52
2021/11/17 17:32:23;;;;;;;2.60;0.95;;;;;;;;;;5054820;28;20131;-55
2021/11/17 17:34:49;;;;;;;5.05;0.90;;;;;;;;;;5066209;28;20110;-51
2021/11/17 17:37:15;;;;;;;4.00;1.50;;;;;;;;;;5075110;28;20042;-50
2021/11/17 17:39:43;;;;;;;2.08;1.30;;;;;;;;;;5073624;28;20110;-53